Aérodrome :
LOGIN :

S'inscrire | Disclaimer

   EN    FR    IT 

 










Légende :    VFR   VFR Marginal   IFR   IFR Intensif   IFR Très Intensif
Visi : 
Plafond : 
>= 8 km
>= 3000ft
5 à 8 km
1000 à 3000 ft
1500m à 5 km
500 à 1000 ft
800 à 1500m
200 à 500 ft
< 800m
< 200 ft
Symboles :   Orages  Brouillard  Fortes neiges  Fortes précipitations  Vent > 20 kt
SIGMETs :   Divers  Orages  Givrage  Turbulence  Onde Orograph.  Cendres Volcan.






- Altitude de l'aérodrome : 20 ft


EBFN - Koksijde

DERNIER METAR :
  • 192355Z AUTO 21011KT 9999 SCT022/// OVC051/// 08/07 Q1017 WHT

METARs EXPIRÉS :
  • 192325Z AUTO 22012KT 9999 FEW014/// BKN022/// OVC049/// 08/07 Q1017 WHT
  • 192310Z AUTO 22011KT 9999 SCT014/// BKN023/// OVC049/// 08/07 Q1017 GRN
  • 192255Z AUTO 22011KT 9000 -DZ BKN015/// OVC048/// 08/07 Q1018 WHT
  • 192253Z AUTO 22012KT 4200 OVC015/// 08/07 Q1018 GRN
  • 192233Z AUTO 22012KT 4100 DZ OVC016/// 08/07 Q1018 GRN
  • 192216Z AUTO 21013KT 3400 -RA OVC015/// 08/07 Q1018 YLO
  • 192155Z AUTO 20011KT 2200 -DZ OVC015/// 08/07 Q1018 YLO
  • 192141Z AUTO 20011KT 2800 -RA OVC020/// 07/07 Q1018 YLO
  • 192125Z AUTO 20010KT 9999 -DZ BKN010/// OVC067/// 07/07 Q1018 GRN

TAF TAF EBFN
Valide du 19 à 19h jusqu'au 20 à 07h UTC


191541Z 1919/2007 24012KT 9999 SCT020 BKN040
TEMPO 1919/1921 4000 -RA SCT012 BKN020
BECMG 1920/1922 22010KT 9999 FEW015



MET'MAP, la Météo Aéronautique d'un coup d'oeil ! - Copyright ORBIFLY Décembre 2007 - Disclaimer

ORBIFLY MET'MAP TEAM :

Programmation & Développement : Alexandra Zaïnal
Sur une idée originale de : Baudouin d'Aumeries
Assistance à la programmation : Marc-Olivier Méhu
Soutien technique & logistique : Manuel Goepfert

Contact : metmap@orbifly.com




SOURCES & CREDITS :

   NOAA